Hlavní strana
METAR-TAF:

METAR-TAF

Letiště :

Niamey, Niger

zeměpisná šířka: 13-29N, zeměpisná délka: 002-10E, výška: 223 m

Aktuální stav počasí

Zpráva byla vytvořena před 1 hodinou a 0 minutami, v 07:00 UTC
Severovýchodní vítr 6 kt, proměnlivý mezi severním a východoseverovýchodním
Teplota 32°C
Vlhkost vzduchu 12%
Tlak 1010 hPa
Viditelnost: 3500 m
rozsáhlý prach

METAR: DRRN 260700Z 04006KT 010V070 3500 DU NSC 32/M01 Q1010 TEMPO 04018KT 2500 BLDU

Čas: 09:00 (08:00 UTC)

Předpověď počasí

Zpráva byla vytvořena před 3 hodinami a 0 minutami, v 05:00 UTC
Předpověď platná od 26 v 06 UTC do 27 v 12 UTC
Východoseverovýchodní vítr 10 kt
Viditelnost: 5000 m
rozsáhlý prach
Dočasný
od 26 v 06 UTC do 26 v 08 UTC
Viditelnost: 2800 m
Dočasný
od 26 v 08 UTC do 26 v 12 UTC
Východoseverovýchodní vítr 20 kt
Viditelnost: 1500 m
zvířený prach
Dočasný
od 26 v 17 UTC do 26 v 20 UTC
Viditelnost: 2800 m

TAF: DRRN 260500Z 2606/2712 06010KT 5000 DU NSC TEMPO 2606/2608 2800 TEMPO 2608/2612 06020KT 1500 BLDU TEMPO 2617/2620 2800

Stav a předpovědi počasí z více než 4 000 letišť (zprávy METAR a TAF).

Červené a žluté tečky na mapě představují dostupné meteorologické stanice.

Když kurzor umístíte na tečku, zobrazí se název stanice.

Pak kliknutím zobrazíte stav a předpověď počasí.

Chcete-li změnit mapu, kliknutím na zelené tlačítko se znaménkem +mapu přiblížíte, kliknutím na zelené tlačítko se znaménkem – mapu oddálíte a kliknutím na zelené šipky přejdete na sousední mapy.


METAR-TAF: